sensor_id;sensor_type;location;lat;lon;timestamp;pressure;altitude;pressure_sealevel;temperature;humidity
44297;BME280;51842;47.450;8.654;2023-02-16T00:01:28;96560.19;;;-0.78;100.00
44297;BME280;51842;47.450;8.654;2023-02-16T00:03:58;96559.06;;;-0.84;100.00
44297;BME280;51842;47.450;8.654;2023-02-16T00:06:27;96563.16;;;-0.89;100.00
44297;BME280;51842;47.450;8.654;2023-02-16T00:08:56;96561.41;;;-0.97;100.00
44297;BME280;51842;47.450;8.654;2023-02-16T00:11:31;96563.66;;;-0.94;100.00
44297;BME280;51842;47.450;8.654;2023-02-16T00:14:24;96561.75;;;-1.00;100.00
44297;BME280;51842;47.450;8.654;2023-02-16T00:16:56;96558.59;;;-0.96;100.00
44297;BME280;51842;47.450;8.654;2023-02-16T00:19:39;96571.03;;;-0.98;100.00
44297;BME280;51842;47.450;8.654;2023-02-16T00:22:08;96573.97;;;-0.93;100.00
44297;BME280;51842;47.450;8.654;2023-02-16T00:24:35;96579.00;;;-0.91;100.00
44297;BME280;51842;47.450;8.654;2023-02-16T00:27:15;96568.41;;;-0.98;100.00
44297;BME280;51842;47.450;8.654;2023-02-16T00:29:43;96567.94;;;-1.01;100.00
44297;BME280;51842;47.450;8.654;2023-02-16T00:32:12;96568.78;;;-1.09;100.00
44297;BME280;51842;47.450;8.654;2023-02-16T00:34:42;96566.03;;;-1.15;100.00
44297;BME280;51842;47.450;8.654;2023-02-16T00:37:12;96580.06;;;-1.17;100.00
44297;BME280;51842;47.450;8.654;2023-02-16T00:39:42;96572.22;;;-1.17;100.00
44297;BME280;51842;47.450;8.654;2023-02-16T00:42:28;96580.06;;;-1.08;100.00
44297;BME280;51842;47.450;8.654;2023-02-16T00:44:58;96584.13;;;-1.06;100.00
44297;BME280;51842;47.450;8.654;2023-02-16T00:47:41;96590.19;;;-1.05;100.00
44297;BME280;51842;47.450;8.654;2023-02-16T00:50:31;96586.91;;;-1.07;100.00
44297;BME280;51842;47.450;8.654;2023-02-16T00:52:58;96594.94;;;-1.09;100.00
44297;BME280;51842;47.450;8.654;2023-02-16T00:55:32;96588.72;;;-1.16;100.00
44297;BME280;51842;47.450;8.654;2023-02-16T00:58:21;96591.84;;;-1.21;100.00
44297;BME280;51842;47.450;8.654;2023-02-16T01:00:55;96597.41;;;-1.24;100.00
44297;BME280;51842;47.450;8.654;2023-02-16T01:03:27;96596.44;;;-1.31;100.00
44297;BME280;51842;47.450;8.654;2023-02-16T01:05:54;96599.06;;;-1.39;100.00
44297;BME280;51842;47.450;8.654;2023-02-16T01:08:40;96593.16;;;-1.41;100.00
44297;BME280;51842;47.450;8.654;2023-02-16T01:11:26;96587.16;;;-1.50;100.00
44297;BME280;51842;47.450;8.654;2023-02-16T01:13:58;96594.84;;;-1.56;100.00
44297;BME280;51842;47.450;8.654;2023-02-16T01:16:39;96588.44;;;-1.46;100.00
44297;BME280;51842;47.450;8.654;2023-02-16T01:19:11;96592.53;;;-1.43;100.00
44297;BME280;51842;47.450;8.654;2023-02-16T01:21:40;96591.72;;;-1.44;100.00
44297;BME280;51842;47.450;8.654;2023-02-16T01:24:09;96593.00;;;-1.48;100.00
44297;BME280;51842;47.450;8.654;2023-02-16T01:26:46;96586.97;;;-1.48;100.00
44297;BME280;51842;47.450;8.654;2023-02-16T01:29:19;96589.44;;;-1.55;100.00
44297;BME280;51842;47.450;8.654;2023-02-16T01:31:45;96587.81;;;-1.56;100.00
44297;BME280;51842;47.450;8.654;2023-02-16T01:34:12;96585.34;;;-1.57;100.00
44297;BME280;51842;47.450;8.654;2023-02-16T01:36:47;96583.38;;;-1.55;100.00
44297;BME280;51842;47.450;8.654;2023-02-16T01:39:18;96579.63;;;-1.53;100.00
44297;BME280;51842;47.450;8.654;2023-02-16T01:42:07;96572.94;;;-1.55;100.00
44297;BME280;51842;47.450;8.654;2023-02-16T01:45:00;96572.94;;;-1.55;100.00
44297;BME280;51842;47.450;8.654;2023-02-16T01:47:57;96580.44;;;-1.52;100.00
44297;BME280;51842;47.450;8.654;2023-02-16T01:51:10;96574.25;;;-1.59;100.00
44297;BME280;51842;47.450;8.654;2023-02-16T01:56:55;96576.66;;;-1.42;100.00
44297;BME280;51842;47.450;8.654;2023-02-16T02:00:00;96573.56;;;-1.45;100.00
44297;BME280;51842;47.450;8.654;2023-02-16T02:02:39;96572.75;;;-1.46;100.00
44297;BME280;51842;47.450;8.654;2023-02-16T02:05:31;96574.09;;;-1.50;100.00
44297;BME280;51842;47.450;8.654;2023-02-16T02:11:25;96571.31;;;-1.56;100.00
44297;BME280;51842;47.450;8.654;2023-02-16T02:14:25;96571.13;;;-1.63;100.00
44297;BME280;51842;47.450;8.654;2023-02-16T02:17:04;96573.44;;;-1.68;100.00
44297;BME280;51842;47.450;8.654;2023-02-16T02:20:00;96576.19;;;-1.61;100.00
44297;BME280;51842;47.450;8.654;2023-02-16T02:23:09;96578.63;;;-1.60;100.00
44297;BME280;51842;47.450;8.654;2023-02-16T02:41:27;96574.41;;;-1.69;100.00
44297;BME280;51842;47.450;8.654;2023-02-16T02:44:23;96572.47;;;-1.75;100.00
44297;BME280;51842;47.450;8.654;2023-02-16T02:47:01;96564.75;;;-1.85;100.00
44297;BME280;51842;47.450;8.654;2023-02-16T02:49:26;96560.84;;;-1.89;100.00
44297;BME280;51842;47.450;8.654;2023-02-16T02:51:59;96563.47;;;-1.89;100.00
44297;BME280;51842;47.450;8.654;2023-02-16T02:54:35;96562.31;;;-1.87;100.00
44297;BME280;51842;47.450;8.654;2023-02-16T02:57:44;96552.88;;;-1.88;100.00
44297;BME280;51842;47.450;8.654;2023-02-16T03:00:43;96550.41;;;-1.89;100.00
44297;BME280;51842;47.450;8.654;2023-02-16T03:03:35;96556.94;;;-1.85;100.00
44297;BME280;51842;47.450;8.654;2023-02-16T03:06:37;96553.03;;;-1.81;100.00
44297;BME280;51842;47.450;8.654;2023-02-16T03:09:14;96551.69;;;-1.85;100.00
44297;BME280;51842;47.450;8.654;2023-02-16T03:11:42;96563.78;;;-1.92;100.00
44297;BME280;51842;47.450;8.654;2023-02-16T03:14:47;96562.66;;;-1.90;100.00
44297;BME280;51842;47.450;8.654;2023-02-16T03:17:27;96564.13;;;-1.87;100.00
44297;BME280;51842;47.450;8.654;2023-02-16T03:20:16;96562.31;;;-1.87;100.00
44297;BME280;51842;47.450;8.654;2023-02-16T03:23:08;96569.16;;;-1.86;100.00
44297;BME280;51842;47.450;8.654;2023-02-16T03:25:55;96570.31;;;-1.88;100.00
44297;BME280;51842;47.450;8.654;2023-02-16T03:28:43;96567.88;;;-1.81;100.00
44297;BME280;51842;47.450;8.654;2023-02-16T03:31:37;96564.13;;;-1.87;100.00
44297;BME280;51842;47.450;8.654;2023-02-16T03:34:08;96560.69;;;-1.88;100.00
44297;BME280;51842;47.450;8.654;2023-02-16T03:36:40;96557.44;;;-1.90;100.00
44297;BME280;51842;47.450;8.654;2023-02-16T03:39:10;96555.81;;;-1.91;100.00
44297;BME280;51842;47.450;8.654;2023-02-16T03:41:48;96560.84;;;-1.89;100.00
44297;BME280;51842;47.450;8.654;2023-02-16T03:44:17;96556.63;;;-1.90;100.00
44297;BME280;51842;47.450;8.654;2023-02-16T03:46:44;96565.59;;;-1.93;100.00
44297;BME280;51842;47.450;8.654;2023-02-16T03:49:13;96556.28;;;-1.87;100.00
44297;BME280;51842;47.450;8.654;2023-02-16T03:51:39;96561.84;;;-1.90;100.00
44297;BME280;51842;47.450;8.654;2023-02-16T03:54:07;96554.16;;;-1.92;100.00
44297;BME280;51842;47.450;8.654;2023-02-16T03:56:36;96558.56;;;-1.92;100.00
44297;BME280;51842;47.450;8.654;2023-02-16T03:59:05;96553.00;;;-1.89;100.00
44297;BME280;51842;47.450;8.654;2023-02-16T04:01:34;96555.47;;;-1.88;100.00
44297;BME280;51842;47.450;8.654;2023-02-16T04:03:59;96561.34;;;-1.86;100.00
44297;BME280;51842;47.450;8.654;2023-02-16T04:06:31;96557.75;;;-1.93;100.00
44297;BME280;51842;47.450;8.654;2023-02-16T04:08:57;96569.00;;;-1.92;100.00
44297;BME280;51842;47.450;8.654;2023-02-16T04:11:25;96563.47;;;-1.97;100.00
44297;BME280;51842;47.450;8.654;2023-02-16T04:14:10;96573.06;;;-1.98;100.00
44297;BME280;51842;47.450;8.654;2023-02-16T04:16:35;96575.53;;;-1.96;100.00
44297;BME280;51842;47.450;8.654;2023-02-16T04:19:07;96572.59;;;-1.93;100.00
44297;BME280;51842;47.450;8.654;2023-02-16T04:21:42;96575.72;;;-1.90;100.00
44297;BME280;51842;47.450;8.654;2023-02-16T04:24:08;96578.81;;;-1.94;100.00
44297;BME280;51842;47.450;8.654;2023-02-16T04:26:37;96582.38;;;-1.95;100.00
44297;BME280;51842;47.450;8.654;2023-02-16T04:29:03;96576.84;;;-2.00;100.00
44297;BME280;51842;47.450;8.654;2023-02-16T04:31:37;96582.22;;;-2.02;100.00
44297;BME280;51842;47.450;8.654;2023-02-16T04:34:06;96580.09;;;-2.06;100.00
44297;BME280;51842;47.450;8.654;2023-02-16T04:36:32;96579.09;;;-2.14;100.00
44297;BME280;51842;47.450;8.654;2023-02-16T04:39:03;96585.16;;;-2.05;100.00
44297;BME280;51842;47.450;8.654;2023-02-16T04:41:30;96583.03;;;-2.10;100.00
44297;BME280;51842;47.450;8.654;2023-02-16T04:43:56;96579.44;;;-2.08;100.00
44297;BME280;51842;47.450;8.654;2023-02-16T04:46:21;96574.38;;;-2.10;100.00
44297;BME280;51842;47.450;8.654;2023-02-16T04:48:56;96577.16;;;-2.12;100.00
44297;BME280;51842;47.450;8.654;2023-02-16T04:51:28;96577.47;;;-2.15;100.00
44297;BME280;51842;47.450;8.654;2023-02-16T04:53:54;96575.53;;;-2.13;100.00
44297;BME280;51842;47.450;8.654;2023-02-16T04:56:20;96578.78;;;-2.11;100.00
44297;BME280;51842;47.450;8.654;2023-02-16T04:58:48;96577.47;;;-2.15;100.00
44297;BME280;51842;47.450;8.654;2023-02-16T05:01:21;96576.97;;;-2.10;100.00
44297;BME280;51842;47.450;8.654;2023-02-16T05:03:54;96585.47;;;-2.08;100.00
44297;BME280;51842;47.450;8.654;2023-02-16T05:06:21;96581.72;;;-2.05;100.00
44297;BME280;51842;47.450;8.654;2023-02-16T05:08:48;96583.34;;;-2.04;100.00
44297;BME280;51842;47.450;8.654;2023-02-16T05:11:16;96579.59;;;-2.10;100.00
44297;BME280;51842;47.450;8.654;2023-02-16T05:14:01;96579.59;;;-2.10;100.00
44297;BME280;51842;47.450;8.654;2023-02-16T05:16:45;96580.09;;;-2.15;100.00
44297;BME280;51842;47.450;8.654;2023-02-16T05:19:12;96585.63;;;-2.18;100.00
44297;BME280;51842;47.450;8.654;2023-02-16T05:21:38;96580.91;;;-2.14;100.00
44297;BME280;51842;47.450;8.654;2023-02-16T05:24:13;96575.19;;;-2.18;100.00
44297;BME280;51842;47.450;8.654;2023-02-16T05:26:39;96588.09;;;-2.16;100.00
44297;BME280;51842;47.450;8.654;2023-02-16T05:29:08;96590.03;;;-2.18;100.00
44297;BME280;51842;47.450;8.654;2023-02-16T05:31:34;96580.56;;;-2.19;100.00
44297;BME280;51842;47.450;8.654;2023-02-16T05:33:59;96581.88;;;-2.15;100.00
44297;BME280;51842;47.450;8.654;2023-02-16T05:36:28;96587.09;;;-2.15;100.00
44297;BME280;51842;47.450;8.654;2023-02-16T05:38:55;96587.25;;;-2.17;100.00
44297;BME280;51842;47.450;8.654;2023-02-16T05:41:28;96586.75;;;-2.20;100.00
44297;BME280;51842;47.450;8.654;2023-02-16T05:44:00;96586.28;;;-2.16;100.00
44297;BME280;51842;47.450;8.654;2023-02-16T05:46:30;96592.63;;;-2.10;100.00
44297;BME280;51842;47.450;8.654;2023-02-16T05:48:59;96589.06;;;-2.17;100.00
44297;BME280;51842;47.450;8.654;2023-02-16T05:51:28;96603.56;;;-2.15;100.00
44297;BME280;51842;47.450;8.654;2023-02-16T05:53:55;96590.69;;;-2.16;100.00
44297;BME280;51842;47.450;8.654;2023-02-16T05:56:22;96601.28;;;-2.18;100.00
44297;BME280;51842;47.450;8.654;2023-02-16T05:59:00;96603.09;;;-2.10;100.00
44297;BME280;51842;47.450;8.654;2023-02-16T06:01:29;96605.22;;;-2.05;100.00
44297;BME280;51842;47.450;8.654;2023-02-16T06:03:57;96605.22;;;-2.05;100.00
44297;BME280;51842;47.450;8.654;2023-02-16T06:06:26;96610.28;;;-2.12;100.00
44297;BME280;51842;47.450;8.654;2023-02-16T06:08:52;96612.09;;;-2.13;100.00
44297;BME280;51842;47.450;8.654;2023-02-16T06:11:18;96611.41;;;-2.15;100.00
44297;BME280;51842;47.450;8.654;2023-02-16T06:14:15;96608.31;;;-2.10;100.00
44297;BME280;51842;47.450;8.654;2023-02-16T06:16:48;96610.28;;;-2.04;100.00
44297;BME280;51842;47.450;8.654;2023-02-16T06:19:18;96617.16;;;-2.03;100.00
44297;BME280;51842;47.450;8.654;2023-02-16T06:21:48;96624.00;;;-2.02;100.00
44297;BME280;51842;47.450;8.654;2023-02-16T06:24:14;96621.38;;;-2.02;100.00
44297;BME280;51842;47.450;8.654;2023-02-16T06:26:40;96626.63;;;-2.02;100.00
44297;BME280;51842;47.450;8.654;2023-02-16T06:29:09;96641.66;;;-1.96;100.00
44297;BME280;51842;47.450;8.654;2023-02-16T06:31:35;96640.81;;;-1.88;100.00
44297;BME280;51842;47.450;8.654;2023-02-16T06:34:01;96643.63;;;-1.90;100.00
44297;BME280;51842;47.450;8.654;2023-02-16T06:36:28;96640.19;;;-1.90;100.00
44297;BME280;51842;47.450;8.654;2023-02-16T06:38:54;96638.72;;;-1.93;100.00
44297;BME280;51842;47.450;8.654;2023-02-16T06:41:20;96638.88;;;-1.94;100.00
44297;BME280;51842;47.450;8.654;2023-02-16T06:44:10;96636.91;;;-2.00;100.00
44297;BME280;51842;47.450;8.654;2023-02-16T06:46:43;96635.13;;;-2.00;100.00
44297;BME280;51842;47.450;8.654;2023-02-16T06:49:22;96640.50;;;-1.93;100.00
44297;BME280;51842;47.450;8.654;2023-02-16T06:51:51;96632.81;;;-1.95;100.00
44297;BME280;51842;47.450;8.654;2023-02-16T06:54:20;96636.78;;;-1.91;100.00
44297;BME280;51842;47.450;8.654;2023-02-16T06:56:46;96639.69;;;-1.86;100.00
44297;BME280;51842;47.450;8.654;2023-02-16T06:59:12;96641.16;;;-1.83;100.00
44297;BME280;51842;47.450;8.654;2023-02-16T07:01:38;96641.66;;;-1.79;100.00
44297;BME280;51842;47.450;8.654;2023-02-16T07:04:07;96647.22;;;-1.82;100.00
44297;BME280;51842;47.450;8.654;2023-02-16T07:06:36;96644.28;;;-1.79;100.00
44297;BME280;51842;47.450;8.654;2023-02-16T07:09:03;96652.47;;;-1.74;100.00
44297;BME280;51842;47.450;8.654;2023-02-16T07:11:29;96649.84;;;-1.66;100.00
44297;BME280;51842;47.450;8.654;2023-02-16T07:13:55;96654.91;;;-1.65;100.00
44297;BME280;51842;47.450;8.654;2023-02-16T07:16:23;96652.63;;;-1.68;100.00
44297;BME280;51842;47.450;8.654;2023-02-16T07:18:52;96653.28;;;-1.66;100.00
44297;BME280;51842;47.450;8.654;2023-02-16T07:21:23;96666.19;;;-1.56;100.00
44297;BME280;51842;47.450;8.654;2023-02-16T07:23:49;96664.75;;;-1.50;100.00
44297;BME280;51842;47.450;8.654;2023-02-16T07:26:15;96662.13;;;-1.42;100.00
44297;BME280;51842;47.450;8.654;2023-02-16T07:28:41;96661.78;;;-1.39;100.00
44297;BME280;51842;47.450;8.654;2023-02-16T07:31:15;96660.66;;;-1.36;100.00
44297;BME280;51842;47.450;8.654;2023-02-16T07:33:42;96666.84;;;-1.29;100.00
44297;BME280;51842;47.450;8.654;2023-02-16T07:36:10;96666.84;;;-1.21;100.00
44297;BME280;51842;47.450;8.654;2023-02-16T07:38:39;96657.88;;;-1.19;100.00
44297;BME280;51842;47.450;8.654;2023-02-16T07:41:06;96655.09;;;-1.17;100.00
44297;BME280;51842;47.450;8.654;2023-02-16T07:43:42;96662.25;;;-1.11;100.00
44297;BME280;51842;47.450;8.654;2023-02-16T07:46:09;96662.09;;;-1.01;100.00
44297;BME280;51842;47.450;8.654;2023-02-16T07:48:38;96671.38;;;-0.82;100.00
44297;BME280;51842;47.450;8.654;2023-02-16T07:51:05;96669.38;;;-0.56;100.00
44297;BME280;51842;47.450;8.654;2023-02-16T07:53:33;96673.19;;;-0.27;100.00
44297;BME280;51842;47.450;8.654;2023-02-16T07:55:59;96673.25;;;-0.04;100.00
44297;BME280;51842;47.450;8.654;2023-02-16T07:58:28;96681.53;;;0.08;98.93
44297;BME280;51842;47.450;8.654;2023-02-16T08:01:10;96669.34;;;0.23;99.22
44297;BME280;51842;47.450;8.654;2023-02-16T08:03:38;96672.91;;;0.30;98.05
44297;BME280;51842;47.450;8.654;2023-02-16T08:06:06;96676.94;;;0.41;97.20
44297;BME280;51842;47.450;8.654;2023-02-16T08:08:35;96679.69;;;0.48;96.86
44297;BME280;51842;47.450;8.654;2023-02-16T08:11:22;96675.81;;;0.58;96.90
44297;BME280;51842;47.450;8.654;2023-02-16T08:14:00;96677.03;;;0.71;96.66
44297;BME280;51842;47.450;8.654;2023-02-16T08:16:28;96678.56;;;0.88;97.30
44297;BME280;51842;47.450;8.654;2023-02-16T08:19:01;96671.34;;;1.05;96.94
44297;BME280;51842;47.450;8.654;2023-02-16T08:21:33;96666.69;;;1.30;96.66
44297;BME280;51842;47.450;8.654;2023-02-16T08:24:10;96676.75;;;1.71;96.39
44297;BME280;51842;47.450;8.654;2023-02-16T08:26:41;96671.06;;;2.18;95.40
44297;BME280;51842;47.450;8.654;2023-02-16T08:29:10;96675.78;;;2.66;92.29
44297;BME280;51842;47.450;8.654;2023-02-16T08:31:41;96674.38;;;3.13;90.35
44297;BME280;51842;47.450;8.654;2023-02-16T08:34:08;96671.00;;;3.54;85.08
44297;BME280;51842;47.450;8.654;2023-02-16T08:36:37;96666.59;;;3.96;82.25
44297;BME280;51842;47.450;8.654;2023-02-16T08:39:15;96667.97;;;4.39;78.50
44297;BME280;51842;47.450;8.654;2023-02-16T08:41:45;96678.78;;;4.78;76.13
44297;BME280;51842;47.450;8.654;2023-02-16T08:44:14;96685.72;;;5.05;72.86
44297;BME280;51842;47.450;8.654;2023-02-16T08:46:44;96682.88;;;5.33;70.89
44297;BME280;51842;47.450;8.654;2023-02-16T08:49:11;96670.25;;;5.62;68.51
44297;BME280;51842;47.450;8.654;2023-02-16T08:51:45;96677.91;;;5.97;68.91
44297;BME280;51842;47.450;8.654;2023-02-16T08:54:22;96680.81;;;6.34;65.78
44297;BME280;51842;47.450;8.654;2023-02-16T08:56:51;96679.03;;;6.66;63.91
44297;BME280;51842;47.450;8.654;2023-02-16T08:59:20;96675.00;;;6.88;63.18
44297;BME280;51842;47.450;8.654;2023-02-16T09:01:48;96684.59;;;7.14;61.81
44297;BME280;51842;47.450;8.654;2023-02-16T09:04:17;96677.25;;;7.41;61.02
44297;BME280;51842;47.450;8.654;2023-02-16T09:06:48;96688.00;;;7.72;60.77
44297;BME280;51842;47.450;8.654;2023-02-16T09:09:15;96689.63;;;7.91;59.67
44297;BME280;51842;47.450;8.654;2023-02-16T09:11:45;96689.31;;;8.18;57.61
44297;BME280;51842;47.450;8.654;2023-02-16T09:14:16;96687.78;;;8.47;57.13
44297;BME280;51842;47.450;8.654;2023-02-16T09:16:41;96691.94;;;8.73;56.18
44297;BME280;51842;47.450;8.654;2023-02-16T09:19:18;96692.38;;;9.00;55.85
44297;BME280;51842;47.450;8.654;2023-02-16T09:21:47;96698.22;;;9.32;56.25
44297;BME280;51842;47.450;8.654;2023-02-16T09:24:23;96698.00;;;9.57;53.99
44297;BME280;51842;47.450;8.654;2023-02-16T09:26:52;96700.66;;;9.81;53.26
44297;BME280;51842;47.450;8.654;2023-02-16T09:29:18;96693.84;;;9.96;52.57
44297;BME280;51842;47.450;8.654;2023-02-16T09:31:44;96688.00;;;10.11;52.61
44297;BME280;51842;47.450;8.654;2023-02-16T09:34:22;96699.00;;;10.38;52.21
44297;BME280;51842;47.450;8.654;2023-02-16T09:36:50;96690.50;;;10.53;52.08
44297;BME280;51842;47.450;8.654;2023-02-16T09:39:16;96690.25;;;10.55;50.93
44297;BME280;51842;47.450;8.654;2023-02-16T09:42:31;96702.44;;;10.79;50.85
44297;BME280;51842;47.450;8.654;2023-02-16T09:45:12;96693.84;;;11.06;49.52
44297;BME280;51842;47.450;8.654;2023-02-16T09:47:47;96689.81;;;11.37;49.61
44297;BME280;51842;47.450;8.654;2023-02-16T09:50:31;96691.69;;;11.70;48.82
44297;BME280;51842;47.450;8.654;2023-02-16T09:53:11;96692.41;;;11.82;47.86
44297;BME280;51842;47.450;8.654;2023-02-16T09:56:29;96691.94;;;11.52;48.27
44297;BME280;51842;47.450;8.654;2023-02-16T09:59:26;96687.75;;;11.22;48.15
44297;BME280;51842;47.450;8.654;2023-02-16T10:02:30;96691.06;;;11.63;47.53
44297;BME280;51842;47.450;8.654;2023-02-16T10:05:30;96691.69;;;11.87;46.59
44297;BME280;51842;47.450;8.654;2023-02-16T10:08:24;96688.41;;;12.02;46.37
44297;BME280;51842;47.450;8.654;2023-02-16T10:13:53;96692.16;;;12.67;45.93
44297;BME280;51842;47.450;8.654;2023-02-16T10:16:33;96689.69;;;12.60;45.14
44297;BME280;51842;47.450;8.654;2023-02-16T10:19:24;96691.69;;;12.75;45.37
44297;BME280;51842;47.450;8.654;2023-02-16T10:22:01;96699.16;;;12.95;45.06
44297;BME280;51842;47.450;8.654;2023-02-16T10:25:04;96689.66;;;13.09;44.35
44297;BME280;51842;47.450;8.654;2023-02-16T10:27:42;96692.53;;;13.30;43.82
44297;BME280;51842;47.450;8.654;2023-02-16T10:30:31;96693.47;;;13.46;43.32
44297;BME280;51842;47.450;8.654;2023-02-16T10:36:52;96684.47;;;13.99;42.56
44297;BME280;51842;47.450;8.654;2023-02-16T10:45:57;96669.47;;;14.56;39.92
44297;BME280;51842;47.450;8.654;2023-02-16T10:48:25;96678.69;;;14.86;39.76
44297;BME280;51842;47.450;8.654;2023-02-16T10:51:16;96674.13;;;14.91;39.06
44297;BME280;51842;47.450;8.654;2023-02-16T10:53:53;96667.75;;;15.18;39.14
44297;BME280;51842;47.450;8.654;2023-02-16T10:56:57;96668.81;;;15.22;39.24
44297;BME280;51842;47.450;8.654;2023-02-16T10:59:38;96662.38;;;15.28;39.17
44297;BME280;51842;47.450;8.654;2023-02-16T11:02:46;96665.59;;;15.30;37.80
44297;BME280;51842;47.450;8.654;2023-02-16T11:05:37;96661.84;;;15.36;37.73
44297;BME280;51842;47.450;8.654;2023-02-16T11:08:08;96661.03;;;15.41;37.63
44297;BME280;51842;47.450;8.654;2023-02-16T11:10:52;96659.97;;;15.67;37.03
44297;BME280;51842;47.450;8.654;2023-02-16T11:13:31;96659.91;;;15.98;36.88
44297;BME280;51842;47.450;8.654;2023-02-16T11:16:19;96650.69;;;16.25;35.90
44297;BME280;51842;47.450;8.654;2023-02-16T11:18:58;96652.09;;;16.17;35.78
44297;BME280;51842;47.450;8.654;2023-02-16T11:21:53;96654.03;;;15.86;35.67
44297;BME280;51842;47.450;8.654;2023-02-16T11:24:38;96650.75;;;16.14;36.19
44297;BME280;51842;47.450;8.654;2023-02-16T11:29:43;96641.34;;;16.66;35.17
44297;BME280;51842;47.450;8.654;2023-02-16T11:32:13;96638.66;;;16.72;35.33
44297;BME280;51842;47.450;8.654;2023-02-16T11:34:51;96630.88;;;16.65;35.21
44297;BME280;51842;47.450;8.654;2023-02-16T11:37:34;96632.91;;;16.94;36.37
44297;BME280;51842;47.450;8.654;2023-02-16T11:40:23;96623.56;;;16.81;35.09
44297;BME280;51842;47.450;8.654;2023-02-16T11:42:59;96623.56;;;16.81;34.96
44297;BME280;51842;47.450;8.654;2023-02-16T11:45:36;96621.56;;;17.02;35.42
44297;BME280;51842;47.450;8.654;2023-02-16T11:48:13;96619.19;;;16.90;35.10
44297;BME280;51842;47.450;8.654;2023-02-16T11:50:58;96614.53;;;17.35;35.23
44297;BME280;51842;47.450;8.654;2023-02-16T11:53:36;96608.88;;;17.66;34.59
44297;BME280;51842;47.450;8.654;2023-02-16T11:56:27;96616.53;;;17.83;33.80
44297;BME280;51842;47.450;8.654;2023-02-16T11:59:18;96607.78;;;17.96;33.11
44297;BME280;51842;47.450;8.654;2023-02-16T12:02:08;96610.09;;;17.84;32.73
44297;BME280;51842;47.450;8.654;2023-02-16T12:05:26;96601.84;;;17.99;33.06
44297;BME280;51842;47.450;8.654;2023-02-16T12:18:41;96581.38;;;17.69;33.13
44297;BME280;51842;47.450;8.654;2023-02-16T12:21:32;96576.03;;;17.93;32.92
44297;BME280;51842;47.450;8.654;2023-02-16T12:33:00;96558.13;;;18.02;32.34
44297;BME280;51842;47.450;8.654;2023-02-16T12:46:07;96560.66;;;18.55;30.58
44297;BME280;51842;47.450;8.654;2023-02-16T12:48:52;96554.63;;;18.20;30.87
44297;BME280;51842;47.450;8.654;2023-02-16T12:51:37;96541.91;;;18.45;29.33
44297;BME280;51842;47.450;8.654;2023-02-16T12:54:43;96547.97;;;18.56;30.36
44297;BME280;51842;47.450;8.654;2023-02-16T12:57:20;96538.56;;;18.53;29.59
44297;BME280;51842;47.450;8.654;2023-02-16T13:00:19;96536.97;;;18.71;30.96
44297;BME280;51842;47.450;8.654;2023-02-16T13:06:07;96529.63;;;19.09;31.66
44297;BME280;51842;47.450;8.654;2023-02-16T13:15:15;96520.56;;;19.33;29.45
44297;BME280;51842;47.450;8.654;2023-02-16T13:18:00;96519.28;;;19.44;29.83
44297;BME280;51842;47.450;8.654;2023-02-16T13:20:28;96511.97;;;19.58;28.82
44297;BME280;51842;47.450;8.654;2023-02-16T13:42:04;96495.31;;;18.58;29.17
44297;BME280;51842;47.450;8.654;2023-02-16T13:45:09;96487.00;;;18.36;27.68
44297;BME280;51842;47.450;8.654;2023-02-16T13:47:40;96476.22;;;18.36;29.48
44297;BME280;51842;47.450;8.654;2023-02-16T13:50:35;96464.56;;;18.40;30.64
44297;BME280;51842;47.450;8.654;2023-02-16T13:53:18;96473.13;;;18.61;29.43
44297;BME280;51842;47.450;8.654;2023-02-16T13:55:49;96474.38;;;18.88;29.43
44297;BME280;51842;47.450;8.654;2023-02-16T13:58:34;96481.09;;;18.90;29.95
44297;BME280;51842;47.450;8.654;2023-02-16T14:01:42;96469.78;;;18.69;29.53
44297;BME280;51842;47.450;8.654;2023-02-16T14:12:16;96470.47;;;18.23;30.09
44297;BME280;51842;47.450;8.654;2023-02-16T14:14:59;96466.97;;;18.04;30.08
44297;BME280;51842;47.450;8.654;2023-02-16T14:17:33;96466.38;;;17.64;30.23
44297;BME280;51842;47.450;8.654;2023-02-16T14:20:27;96468.50;;;17.19;30.97
44297;BME280;51842;47.450;8.654;2023-02-16T14:22:57;96473.78;;;17.00;31.38
44297;BME280;51842;47.450;8.654;2023-02-16T14:25:33;96476.78;;;16.64;31.73
44297;BME280;51842;47.450;8.654;2023-02-16T14:31:18;96473.66;;;16.47;31.98
44297;BME280;51842;47.450;8.654;2023-02-16T14:34:15;96469.31;;;16.17;32.26
44297;BME280;51842;47.450;8.654;2023-02-16T14:37:38;96468.22;;;16.18;33.11
44297;BME280;51842;47.450;8.654;2023-02-16T14:43:40;96458.56;;;16.17;33.75
44297;BME280;51842;47.450;8.654;2023-02-16T14:59:57;96471.38;;;15.81;36.06
44297;BME280;51842;47.450;8.654;2023-02-16T15:02:41;96479.47;;;15.65;36.27
44297;BME280;51842;47.450;8.654;2023-02-16T15:05:32;96469.91;;;15.34;36.51
44297;BME280;51842;47.450;8.654;2023-02-16T15:08:21;96479.31;;;15.31;37.33
44297;BME280;51842;47.450;8.654;2023-02-16T15:10:51;96475.28;;;15.28;36.87
44297;BME280;51842;47.450;8.654;2023-02-16T15:13:26;96469.97;;;15.08;37.14
44297;BME280;51842;47.450;8.654;2023-02-16T15:15:59;96467.56;;;14.91;37.59
44297;BME280;51842;47.450;8.654;2023-02-16T15:18:45;96463.31;;;14.75;37.63
44297;BME280;51842;47.450;8.654;2023-02-16T15:21:26;96465.47;;;14.63;37.96
44297;BME280;51842;47.450;8.654;2023-02-16T15:23:57;96463.28;;;14.39;38.27
44297;BME280;51842;47.450;8.654;2023-02-16T15:26:34;96470.78;;;14.37;38.80
44297;BME280;51842;47.450;8.654;2023-02-16T15:29:24;96470.22;;;14.35;38.85
44297;BME280;51842;47.450;8.654;2023-02-16T15:31:53;96475.06;;;14.23;39.07
44297;BME280;51842;47.450;8.654;2023-02-16T15:34:33;96466.16;;;14.07;39.38
44297;BME280;51842;47.450;8.654;2023-02-16T15:37:27;96467.50;;;13.99;39.45
44297;BME280;51842;47.450;8.654;2023-02-16T15:40:14;96469.88;;;13.85;39.91
44297;BME280;51842;47.450;8.654;2023-02-16T15:42:43;96480.53;;;13.75;40.51
44297;BME280;51842;47.450;8.654;2023-02-16T15:45:50;96470.88;;;13.64;41.33
44297;BME280;51842;47.450;8.654;2023-02-16T15:48:36;96475.97;;;13.60;41.51
44297;BME280;51842;47.450;8.654;2023-02-16T15:51:25;96478.59;;;13.55;41.88